Time;durP1;ratioP1;P1;durP2;ratioP2;P2;SDS_P1;SDS_P2;PMS_P1;PMS_P2;Temp;Humidity;BMP_temperature;BMP_pressure;BME280_temperature;BME280_humidity;BME280_pressure;Samples;Min_cycle;Max_cycle;Signal;HPM_P1;HPM_P2
2021/06/15 00:00:52;;;;;;;5.57;5.07;;;24.40;99.90;;;;;;5055183;28;20207;-88
2021/06/15 00:03:19;;;;;;;6.38;5.18;;;24.40;99.90;;;;;;5054867;28;20246;-91
2021/06/15 00:05:47;;;;;;;6.30;5.50;;;24.30;99.90;;;;;;5055748;28;20233;-91
2021/06/15 00:08:16;;;;;;;5.90;5.28;;;24.30;99.90;;;;;;5056703;28;20234;-96
2021/06/15 00:10:43;;;;;;;6.80;5.95;;;24.30;99.90;;;;;;5057458;28;20582;-88
2021/06/15 00:13:11;;;;;;;7.60;5.20;;;24.30;99.90;;;;;;5056170;28;20214;-92
2021/06/15 00:15:40;;;;;;;5.55;4.97;;;24.20;99.90;;;;;;5060803;28;20218;-94
2021/06/15 00:18:08;;;;;;;5.30;4.82;;;24.20;99.90;;;;;;5058045;28;20666;-93
2021/06/15 00:20:36;;;;;;;5.70;5.30;;;24.10;99.90;;;;;;5061011;28;20211;-93
2021/06/15 00:23:03;;;;;;;5.97;5.35;;;24.20;99.90;;;;;;5047861;28;20202;-88
2021/06/15 00:25:33;;;;;;;7.18;4.50;;;24.20;99.90;;;;;;5071509;28;20213;-95
2021/06/15 00:28:00;;;;;;;5.30;4.75;;;24.20;99.90;;;;;;5062626;28;20631;-96
2021/06/15 00:30:27;;;;;;;5.45;5.03;;;24.20;99.90;;;;;;5062948;28;20229;-95
2021/06/15 00:32:54;;;;;;;7.43;5.50;;;24.20;99.90;;;;;;5027649;28;20248;-92
2021/06/15 00:35:21;;;;;;;6.00;5.50;;;24.10;99.90;;;;;;5042315;28;20678;-82
2021/06/15 00:37:49;;;;;;;6.07;5.47;;;24.00;99.90;;;;;;5051924;28;20681;-80
2021/06/15 00:40:17;;;;;;;6.15;4.72;;;24.00;99.90;;;;;;5053458;28;20280;-81
2021/06/15 00:42:45;;;;;;;5.50;4.80;;;23.90;99.90;;;;;;5053382;28;20253;-81
2021/06/15 00:45:15;;;;;;;5.15;4.65;;;24.00;99.90;;;;;;5052701;28;20295;-80
2021/06/15 00:47:46;;;;;;;5.20;4.75;;;23.90;99.90;;;;;;5053455;28;20230;-82
2021/06/15 00:50:13;;;;;;;5.78;5.05;;;23.90;99.90;;;;;;5053184;28;20206;-85
2021/06/15 00:52:41;;;;;;;5.45;4.95;;;23.80;99.90;;;;;;5054576;28;20257;-84
2021/06/15 00:55:09;;;;;;;6.57;5.18;;;23.80;99.90;;;;;;5039754;28;20203;-85
2021/06/15 00:57:36;;;;;;;5.85;5.03;;;23.80;99.90;;;;;;5053840;28;20215;-80
2021/06/15 01:00:07;;;;;;;6.60;4.88;;;23.80;99.90;;;;;;5054018;28;20214;-89
2021/06/15 01:02:37;;;;;;;7.15;5.75;;;23.80;99.90;;;;;;5054337;28;20215;-83
2021/06/15 01:05:06;;;;;;;5.35;4.85;;;23.70;99.90;;;;;;5053318;28;20674;-81
2021/06/15 01:07:36;;;;;;;6.90;5.60;;;23.70;99.90;;;;;;5052523;28;20211;-81
2021/06/15 01:10:07;;;;;;;6.55;5.68;;;23.70;99.90;;;;;;5053615;28;20272;-81
2021/06/15 01:12:42;;;;;;;7.63;5.70;;;23.80;99.90;;;;;;5053561;28;20305;-81
2021/06/15 01:15:14;;;;;;;5.93;4.78;;;23.90;99.90;;;;;;5052281;28;20217;-81
2021/06/15 01:17:48;;;;;;;7.53;5.43;;;23.90;99.90;;;;;;5053058;28;20269;-81
2021/06/15 01:20:18;;;;;;;6.90;4.93;;;23.80;99.90;;;;;;5052593;28;20269;-81
2021/06/15 01:23:14;;;;;;;4.75;4.35;;;23.70;99.90;;;;;;5052947;28;20214;-82
2021/06/15 01:25:56;;;;;;;5.47;5.07;;;23.60;99.90;;;;;;5052926;28;20207;-82
2021/06/15 01:28:30;;;;;;;5.30;4.80;;;23.50;99.90;;;;;;5041957;28;20250;-82
2021/06/15 01:31:02;;;;;;;8.45;5.28;;;23.40;99.90;;;;;;5032548;28;20273;-80
2021/06/15 01:33:33;;;;;;;4.90;4.50;;;23.40;99.90;;;;;;5032539;28;20207;-81
2021/06/15 01:36:02;;;;;;;5.72;5.22;;;23.30;99.90;;;;;;5032712;28;20222;-82
2021/06/15 01:38:35;;;;;;;5.50;5.00;;;23.20;99.90;;;;;;5032038;28;20207;-79
2021/06/15 01:41:08;;;;;;;6.25;5.38;;;23.20;99.90;;;;;;5032800;28;20736;-81
2021/06/15 01:43:40;;;;;;;6.05;5.45;;;23.20;99.90;;;;;;5032086;28;20679;-78
2021/06/15 01:46:11;;;;;;;7.60;4.63;;;23.20;99.90;;;;;;5032493;28;20215;-81
2021/06/15 01:48:42;;;;;;;6.60;5.15;;;23.10;99.90;;;;;;5032377;28;20304;-80
2021/06/15 01:51:11;;;;;;;4.63;4.22;;;23.10;99.90;;;;;;5031909;28;20211;-80
2021/06/15 01:53:46;;;;;;;6.68;4.60;;;23.20;99.90;;;;;;5032336;28;20269;-80
2021/06/15 01:56:16;;;;;;;6.03;5.45;;;23.20;99.90;;;;;;5031873;28;20253;-79
2021/06/15 01:58:48;;;;;;;6.22;5.18;;;23.30;99.90;;;;;;5032101;28;20298;-80
2021/06/15 02:01:17;;;;;;;5.63;5.00;;;23.20;99.90;;;;;;5031970;28;20626;-80
2021/06/15 02:03:46;;;;;;;5.13;4.70;;;23.00;99.90;;;;;;5032177;28;20294;-80
2021/06/15 02:06:15;;;;;;;5.55;5.03;;;23.00;99.90;;;;;;5031720;28;20286;-81
2021/06/15 02:08:45;;;;;;;5.53;5.03;;;23.00;99.90;;;;;;5031824;28;20301;-80
2021/06/15 02:11:14;;;;;;;5.93;5.38;;;23.10;99.90;;;;;;5031155;28;20280;-80
2021/06/15 02:13:46;;;;;;;7.10;6.22;;;23.00;99.90;;;;;;5031976;28;20207;-80
2021/06/15 02:16:14;;;;;;;6.47;4.50;;;23.00;99.90;;;;;;5031284;28;20208;-80
2021/06/15 02:18:46;;;;;;;5.80;5.20;;;22.90;99.90;;;;;;5031698;28;20626;-80
2021/06/15 02:21:15;;;;;;;7.53;6.35;;;22.90;99.90;;;;;;5031361;28;20261;-80
2021/06/15 02:23:45;;;;;;;6.50;5.53;;;22.90;99.90;;;;;;5032243;28;20274;-83
2021/06/15 02:26:16;;;;;;;5.68;5.10;;;23.00;99.90;;;;;;5033580;28;20227;-85
2021/06/15 02:28:45;;;;;;;10.25;5.07;;;23.10;99.90;;;;;;5043762;28;20239;-85
2021/06/15 02:31:17;;;;;;;5.68;5.15;;;23.10;99.90;;;;;;5031823;28;20215;-85
2021/06/15 02:33:50;;;;;;;4.72;4.35;;;23.10;99.90;;;;;;5031623;28;20207;-82
2021/06/15 02:36:22;;;;;;;7.68;6.30;;;22.90;99.90;;;;;;5031190;28;20215;-84
2021/06/15 02:38:55;;;;;;;5.13;4.72;;;22.80;99.90;;;;;;5032561;28;20211;-82
2021/06/15 02:41:24;;;;;;;6.15;5.65;;;22.80;99.90;;;;;;5031289;28;20622;-83
2021/06/15 02:43:58;;;;;;;5.45;4.88;;;22.90;99.90;;;;;;5017801;28;20215;-79
2021/06/15 02:46:27;;;;;;;7.32;5.57;;;22.90;99.90;;;;;;5030985;28;20689;-79
2021/06/15 02:48:58;;;;;;;6.15;5.35;;;23.00;99.90;;;;;;5031368;28;20223;-79
2021/06/15 02:51:29;;;;;;;6.55;5.88;;;22.90;99.90;;;;;;5031090;28;20216;-77
2021/06/15 02:54:05;;;;;;;6.22;5.63;;;22.90;99.90;;;;;;5030848;28;20212;-77
2021/06/15 02:56:37;;;;;;;8.55;5.95;;;22.90;99.90;;;;;;5030987;28;20207;-84
2021/06/15 02:59:05;;;;;;;6.53;5.35;;;22.80;99.90;;;;;;5031654;28;20293;-83
2021/06/15 03:01:32;;;;;;;7.50;6.25;;;22.70;99.90;;;;;;5031473;28;20261;-82
2021/06/15 03:03:59;;;;;;;6.63;6.00;;;22.70;99.90;;;;;;5031269;28;20250;-83
2021/06/15 03:06:26;;;;;;;6.57;6.00;;;22.70;99.90;;;;;;5030716;28;20212;-82
2021/06/15 03:08:53;;;;;;;6.45;5.85;;;22.70;99.90;;;;;;5030704;28;20227;-82
2021/06/15 03:11:24;;;;;;;9.13;6.32;;;22.70;99.90;;;;;;5030605;28;20218;-82
2021/06/15 03:13:59;;;;;;;7.93;6.82;;;22.70;99.90;;;;;;5031008;28;20215;-82
2021/06/15 03:16:32;;;;;;;6.65;6.03;;;22.70;99.90;;;;;;5030609;28;20605;-81
2021/06/15 03:19:05;;;;;;;7.53;6.30;;;22.70;99.90;;;;;;5030591;28;20675;-81
2021/06/15 03:21:37;;;;;;;7.80;7.05;;;22.60;99.90;;;;;;5030671;28;20208;-81
2021/06/15 03:24:08;;;;;;;9.45;6.72;;;22.40;99.90;;;;;;5030780;28;20257;-89
2021/06/15 03:26:39;;;;;;;7.40;6.78;;;22.50;99.90;;;;;;5031818;28;20211;-84
2021/06/15 03:29:10;;;;;;;6.95;6.43;;;22.40;99.90;;;;;;5030846;28;20223;-87
2021/06/15 03:31:43;;;;;;;8.02;6.82;;;22.40;99.90;;;;;;5031461;28;20204;-86
2021/06/15 03:34:13;;;;;;;7.18;6.55;;;22.40;99.90;;;;;;5031116;28;20207;-85
2021/06/15 03:36:41;;;;;;;8.43;7.60;;;22.40;99.90;;;;;;5031542;28;20211;-87
2021/06/15 03:39:10;;;;;;;8.30;7.35;;;22.50;99.90;;;;;;5031203;28;20257;-80
2021/06/15 03:41:38;;;;;;;7.40;6.72;;;22.50;99.90;;;;;;5031415;28;20219;-91
2021/06/15 03:44:06;;;;;;;6.63;5.97;;;22.50;99.90;;;;;;5032519;28;20219;-83
2021/06/15 03:46:36;;;;;;;7.72;6.93;;;22.50;99.90;;;;;;5030713;28;20203;-79
2021/06/15 03:49:07;;;;;;;8.05;7.13;;;22.40;99.90;;;;;;5031093;28;20227;-81
2021/06/15 03:51:38;;;;;;;6.75;6.25;;;22.40;99.90;;;;;;5031276;28;20203;-85
2021/06/15 03:54:08;;;;;;;9.65;8.10;;;22.30;99.90;;;;;;5030762;28;20226;-79
2021/06/15 03:56:37;;;;;;;7.60;6.93;;;22.10;99.90;;;;;;5030397;28;20671;-79
2021/06/15 03:59:06;;;;;;;8.75;7.95;;;22.10;99.90;;;;;;5030529;28;20207;-80
2021/06/15 04:01:36;;;;;;;7.60;6.90;;;22.10;99.90;;;;;;5030721;28;20675;-80
2021/06/15 04:04:06;;;;;;;9.10;8.05;;;22.20;99.90;;;;;;5030467;28;20207;-80
2021/06/15 04:06:36;;;;;;;9.20;7.47;;;22.30;99.90;;;;;;5030601;28;20207;-81
2021/06/15 04:09:05;;;;;;;8.68;7.40;;;22.30;99.90;;;;;;5030585;28;20277;-88
2021/06/15 04:11:37;;;;;;;7.88;6.57;;;22.20;99.90;;;;;;5029837;28;20216;-83
2021/06/15 04:14:06;;;;;;;7.88;7.22;;;22.20;99.90;;;;;;5024924;28;20215;-84
2021/06/15 04:16:34;;;;;;;9.15;7.43;;;22.10;99.90;;;;;;5031005;28;20633;-84
2021/06/15 04:19:02;;;;;;;8.48;7.70;;;22.00;99.90;;;;;;5030774;28;20208;-83
2021/06/15 04:21:34;;;;;;;7.97;7.05;;;22.00;99.90;;;;;;5030417;28;20204;-82
2021/06/15 04:24:04;;;;;;;9.10;7.45;;;22.00;99.90;;;;;;5030627;28;20250;-83
2021/06/15 04:26:34;;;;;;;7.95;7.30;;;22.00;99.90;;;;;;5030983;28;20266;-84
2021/06/15 04:29:01;;;;;;;7.88;7.07;;;22.10;99.90;;;;;;5044747;28;20229;-83
2021/06/15 04:31:30;;;;;;;8.40;7.70;;;22.00;99.90;;;;;;5034625;28;20210;-85
2021/06/15 04:33:59;;;;;;;7.80;7.10;;;21.90;99.90;;;;;;5037714;28;20215;-84
2021/06/15 04:36:27;;;;;;;9.50;8.52;;;22.00;99.90;;;;;;5048553;28;20207;-96
2021/06/15 04:39:00;;;;;;;10.93;9.85;;;21.90;99.90;;;;;;5037712;28;20568;-94
2021/06/15 04:41:32;;;;;;;9.63;7.85;;;21.80;99.90;;;;;;5036746;28;20207;-91
2021/06/15 04:44:04;;;;;;;11.32;8.43;;;21.90;99.90;;;;;;5034833;28;20215;-91
2021/06/15 04:46:40;;;;;;;10.27;8.82;;;22.00;99.90;;;;;;5034338;28;20207;-90
2021/06/15 04:49:11;;;;;;;11.93;9.77;;;22.00;99.90;;;;;;5034908;28;20238;-91
2021/06/15 04:51:40;;;;;;;9.15;8.20;;;21.90;99.90;;;;;;5040043;28;20578;-83
2021/06/15 04:54:12;;;;;;;9.80;8.50;;;22.00;99.90;;;;;;5040048;28;20214;-82
2021/06/15 04:56:41;;;;;;;11.00;9.07;;;22.00;99.90;;;;;;5040089;28;20547;-82
2021/06/15 04:59:08;;;;;;;10.25;9.23;;;22.00;99.90;;;;;;5019455;28;20208;-82
2021/06/15 05:01:37;;;;;;;12.80;9.45;;;22.00;99.90;;;;;;5032692;28;20269;-84
2021/06/15 05:04:06;;;;;;;13.98;8.85;;;21.90;99.90;;;;;;5046910;28;20307;-85
2021/06/15 05:06:34;;;;;;;9.63;8.73;;;22.00;99.90;;;;;;5031214;28;20208;-84
2021/06/15 05:09:05;;;;;;;11.77;9.52;;;22.10;99.90;;;;;;5019731;28;20258;-83
2021/06/15 05:11:36;;;;;;;10.52;8.63;;;22.10;99.90;;;;;;5033334;28;20288;-83
2021/06/15 05:14:05;;;;;;;9.35;8.32;;;22.20;99.90;;;;;;5033451;28;20269;-83
2021/06/15 05:16:34;;;;;;;12.60;8.73;;;22.20;99.90;;;;;;5033205;28;20680;-84
2021/06/15 05:19:01;;;;;;;9.88;7.82;;;22.20;99.90;;;;;;5033422;28;20303;-84
2021/06/15 05:21:35;;;;;;;9.23;8.25;;;22.30;99.90;;;;;;5040611;28;20743;-82
2021/06/15 05:24:06;;;;;;;8.93;8.10;;;22.30;99.90;;;;;;5038177;28;20386;-80
2021/06/15 05:26:33;;;;;;;11.52;8.52;;;22.20;99.90;;;;;;5024966;28;20226;-81
2021/06/15 05:29:01;;;;;;;9.57;8.15;;;22.20;99.90;;;;;;5033327;28;20694;-81
2021/06/15 05:31:28;;;;;;;8.77;7.90;;;22.30;99.90;;;;;;5019062;28;20207;-80
2021/06/15 05:33:55;;;;;;;10.80;7.68;;;22.30;99.90;;;;;;5032921;28;20208;-81
2021/06/15 05:36:22;;;;;;;10.77;8.88;;;22.40;99.90;;;;;;5031648;28;20644;-82
2021/06/15 05:38:49;;;;;;;10.23;9.23;;;22.50;99.90;;;;;;5032669;28;20204;-81
2021/06/15 05:41:18;;;;;;;11.35;7.80;;;22.50;99.90;;;;;;5032022;28;20733;-81
2021/06/15 05:43:45;;;;;;;8.82;8.02;;;22.50;99.90;;;;;;5032368;28;20213;-81
2021/06/15 05:46:14;;;;;;;8.68;7.70;;;22.40;99.90;;;;;;5032236;28;20211;-80
2021/06/15 05:48:41;;;;;;;11.88;9.25;;;22.30;99.90;;;;;;5032291;28;20667;-81
2021/06/15 05:51:08;;;;;;;8.98;7.70;;;22.30;99.90;;;;;;5029872;28;20670;-80
2021/06/15 05:53:35;;;;;;;11.63;8.75;;;22.40;99.90;;;;;;5028537;28;20277;-80
2021/06/15 05:56:02;;;;;;;9.20;7.70;;;22.40;99.90;;;;;;5026778;28;20266;-80
2021/06/15 05:58:29;;;;;;;7.07;6.47;;;22.60;99.90;;;;;;5026718;28;20269;-80
2021/06/15 06:00:56;;;;;;;8.38;7.57;;;22.60;99.90;;;;;;5032428;28;20216;-80
2021/06/15 06:03:32;;;;;;;9.00;7.55;;;22.70;99.90;;;;;;5031645;28;20211;-80
2021/06/15 06:08:43;;;;;;;9.73;8.35;;;23.00;99.90;;;;;;5022597;28;20226;-81
2021/06/15 06:11:10;;;;;;;7.47;6.78;;;23.10;99.90;;;;;;5032089;28;20232;-84
2021/06/15 06:13:37;;;;;;;8.60;7.65;;;23.00;99.90;;;;;;5033072;28;20262;-87
2021/06/15 06:16:08;;;;;;;8.02;7.22;;;23.20;99.90;;;;;;5031874;28;20254;-76
2021/06/15 06:18:37;;;;;;;12.90;8.13;;;23.30;99.90;;;;;;5022558;28;20247;-74
2021/06/15 06:21:08;;;;;;;7.57;6.80;;;23.40;99.90;;;;;;5030053;28;20211;-77
2021/06/15 06:23:36;;;;;;;8.80;7.45;;;23.60;99.90;;;;;;5029904;28;20211;-77
2021/06/15 06:26:03;;;;;;;11.75;8.18;;;23.70;99.90;;;;;;5032015;28;20208;-76
2021/06/15 06:28:30;;;;;;;7.38;6.65;;;23.50;99.90;;;;;;5030348;28;20207;-76
2021/06/15 06:30:57;;;;;;;10.07;7.32;;;23.50;99.90;;;;;;5030063;28;20231;-75
2021/06/15 06:33:24;;;;;;;8.75;7.05;;;23.60;99.90;;;;;;5030835;28;20265;-76
2021/06/15 06:35:52;;;;;;;7.95;7.15;;;23.70;99.90;;;;;;5031621;28;20211;-78
2021/06/15 06:38:19;;;;;;;8.90;7.55;;;23.70;99.90;;;;;;5030491;28;20208;-77
2021/06/15 06:40:46;;;;;;;7.82;7.13;;;23.60;99.90;;;;;;5030517;28;20208;-76
2021/06/15 06:43:13;;;;;;;7.70;7.00;;;23.70;99.90;;;;;;5028786;28;20212;-74
2021/06/15 06:45:40;;;;;;;9.27;7.10;;;24.00;99.90;;;;;;5027983;28;20212;-73
2021/06/15 06:48:08;;;;;;;7.40;6.70;;;24.10;99.90;;;;;;5031112;28;20203;-74
2021/06/15 06:50:35;;;;;;;8.48;6.28;;;24.30;99.90;;;;;;5026628;28;20228;-74
2021/06/15 06:53:04;;;;;;;7.90;6.93;;;24.50;99.90;;;;;;5031104;28;20265;-74
2021/06/15 06:55:32;;;;;;;7.40;6.70;;;24.40;99.90;;;;;;5030759;28;20208;-78
2021/06/15 06:58:00;;;;;;;8.25;7.47;;;24.50;99.90;;;;;;5030982;28;20246;-78
2021/06/15 07:00:28;;;;;;;8.38;6.32;;;24.50;99.90;;;;;;5030432;28;20671;-77
2021/06/15 07:02:55;;;;;;;7.30;6.63;;;24.40;99.90;;;;;;5025942;28;20239;-76
2021/06/15 07:05:22;;;;;;;8.68;6.63;;;24.50;99.90;;;;;;5028569;28;20218;-77
2021/06/15 07:07:51;;;;;;;7.72;6.60;;;24.60;99.90;;;;;;5030747;28;20246;-76
2021/06/15 07:10:20;;;;;;;8.38;6.10;;;24.60;99.90;;;;;;5027235;28;20793;-76
2021/06/15 07:12:48;;;;;;;6.80;5.93;;;24.70;99.90;;;;;;5026994;28;20261;-80
2021/06/15 07:15:16;;;;;;;9.63;6.25;;;24.90;99.90;;;;;;5027842;28;20207;-76
2021/06/15 07:17:43;;;;;;;11.68;6.68;;;24.90;99.90;;;;;;5029503;28;20262;-78
2021/06/15 07:20:11;;;;;;;11.07;6.82;;;25.10;99.90;;;;;;5028558;28;20203;-76
2021/06/15 07:22:39;;;;;;;6.85;5.88;;;25.20;99.90;;;;;;5030534;28;20257;-75
2021/06/15 07:25:08;;;;;;;7.30;6.65;;;25.20;99.90;;;;;;5030490;28;20204;-74
2021/06/15 07:27:36;;;;;;;7.10;5.70;;;25.30;99.90;;;;;;5030376;28;20670;-73
2021/06/15 07:30:05;;;;;;;8.90;7.35;;;25.50;99.90;;;;;;5030164;28;20227;-74
2021/06/15 07:32:32;;;;;;;8.55;6.65;;;26.30;99.90;;;;;;5026977;28;20634;-72
2021/06/15 07:34:59;;;;;;;6.63;6.13;;;26.80;99.90;;;;;;5029252;28;20207;-81
2021/06/15 07:37:26;;;;;;;8.25;6.75;;;26.00;99.90;;;;;;5030381;28;20216;-80
2021/06/15 07:39:53;;;;;;;7.05;5.63;;;25.90;99.90;;;;;;5028141;28;20273;-80
2021/06/15 07:42:20;;;;;;;9.13;6.70;;;26.10;99.90;;;;;;5028936;28;20626;-77
2021/06/15 07:44:48;;;;;;;5.95;5.20;;;28.00;99.90;;;;;;5029523;28;20749;-75
2021/06/15 07:47:15;;;;;;;7.75;6.20;;;29.00;99.90;;;;;;5017052;28;20270;-82
2021/06/15 07:49:42;;;;;;;9.50;6.50;;;29.10;99.90;;;;;;5028942;28;20207;-77
2021/06/15 07:52:09;;;;;;;8.63;7.30;;;29.00;99.90;;;;;;5029655;28;20253;-76
2021/06/15 07:54:36;;;;;;;6.20;5.57;;;28.70;99.90;;;;;;5028724;28;20199;-78
2021/06/15 07:57:05;;;;;;;6.60;5.88;;;28.90;99.90;;;;;;5027960;28;20207;-76
2021/06/15 07:59:32;;;;;;;6.28;5.68;;;28.70;99.90;;;;;;5029811;28;20207;-75
2021/06/15 08:02:00;;;;;;;11.82;6.30;;;28.60;99.90;;;;;;5030088;28;20238;-78
2021/06/15 08:04:27;;;;;;;7.40;5.20;;;30.10;99.90;;;;;;5029832;28;20208;-77
2021/06/15 08:06:55;;;;;;;5.80;5.30;;;30.20;99.90;;;;;;5029915;28;20621;-78
2021/06/15 08:09:22;;;;;;;10.43;6.88;;;29.50;99.90;;;;;;5029280;28;20211;-79
2021/06/15 08:11:49;;;;;;;6.20;5.13;;;29.30;99.90;;;;;;5029287;28;20293;-80
2021/06/15 08:14:16;;;;;;;8.68;6.22;;;29.10;99.90;;;;;;5029312;28;20678;-75
2021/06/15 08:16:43;;;;;;;7.75;6.28;;;29.60;99.90;;;;;;5033332;28;20694;-76
2021/06/15 08:19:12;;;;;;;5.45;4.95;;;31.00;99.90;;;;;;5032899;28;20199;-79
2021/06/15 08:21:39;;;;;;;5.50;4.97;;;29.90;99.90;;;;;;5033708;28;20334;-77
2021/06/15 08:24:09;;;;;;;9.18;5.53;;;29.00;99.90;;;;;;5033674;28;20623;-77
2021/06/15 08:26:36;;;;;;;6.65;5.93;;;28.80;99.90;;;;;;5032702;28;20663;-77
2021/06/15 08:29:03;;;;;;;5.88;5.03;;;28.50;99.90;;;;;;5032891;28;20298;-77
2021/06/15 08:31:30;;;;;;;5.50;4.85;;;28.40;99.90;;;;;;5033202;28;20223;-76
2021/06/15 08:33:57;;;;;;;6.20;5.53;;;28.20;99.90;;;;;;5033727;28;20605;-77
2021/06/15 08:36:26;;;;;;;5.82;5.07;;;28.20;99.90;;;;;;5032871;28;20690;-78
2021/06/15 08:38:53;;;;;;;6.18;5.03;;;28.20;99.90;;;;;;5033990;28;20261;-77
2021/06/15 08:41:20;;;;;;;7.43;5.35;;;28.30;99.90;;;;;;5033443;28;20212;-77
2021/06/15 08:43:48;;;;;;;8.73;5.82;;;28.60;99.90;;;;;;5033297;28;20207;-77
2021/06/15 08:46:19;;;;;;;9.80;6.50;;;28.80;99.90;;;;;;5033352;28;20207;-77
2021/06/15 08:48:46;;;;;;;10.18;5.93;;;28.90;99.90;;;;;;5033250;28;20294;-77
2021/06/15 08:51:13;;;;;;;8.05;5.28;;;29.30;99.90;;;;;;5033408;28;20393;-78
2021/06/15 08:53:41;;;;;;;4.57;4.20;;;29.50;99.90;;;;;;5033547;28;20254;-78
2021/06/15 08:56:21;;;;;;;8.27;4.82;;;29.40;99.90;;;;;;5033221;28;20209;-78
2021/06/15 08:58:59;;;;;;;8.20;4.97;;;29.80;99.90;;;;;;5033291;28;20227;-78
2021/06/15 09:01:26;;;;;;;6.57;4.65;;;30.50;99.90;;;;;;5033206;28;20207;-78
2021/06/15 09:03:53;;;;;;;5.57;4.85;;;31.80;99.90;;;;;;5024776;28;20200;-78
2021/06/15 09:06:20;;;;;;;6.28;4.40;;;31.40;99.90;;;;;;5032832;28;20729;-78
2021/06/15 09:08:53;;;;;;;5.22;4.03;;;32.40;99.90;;;;;;5033254;28;20207;-77
2021/06/15 09:11:21;;;;;;;9.15;4.63;;;34.30;99.90;;;;;;5032840;28;20234;-78
2021/06/15 09:13:48;;;;;;;6.70;5.13;;;36.50;99.90;;;;;;5032986;28;20257;-77
2021/06/15 09:16:23;;;;;;;5.90;4.97;;;35.20;99.90;;;;;;5032771;28;20207;-78
2021/06/15 09:18:50;;;;;;;4.78;4.38;;;33.50;99.90;;;;;;5032895;28;20216;-78
2021/06/15 09:21:43;;;;;;;5.65;4.47;;;32.20;99.90;;;;;;5032408;28;20248;-77
2021/06/15 09:24:13;;;;;;;8.13;4.55;;;32.40;99.90;;;;;;5022482;28;20210;-77
2021/06/15 09:26:55;;;;;;;5.05;4.65;;;31.80;99.90;;;;;;5031277;28;20217;-77
2021/06/15 09:29:41;;;;;;;4.90;4.30;;;32.60;99.90;;;;;;5028975;28;20638;-77
2021/06/15 09:32:10;;;;;;;5.72;4.20;;;33.60;99.90;;;;;;5032091;28;20317;-77
2021/06/15 09:34:37;;;;;;;4.28;3.88;;;32.40;99.90;;;;;;5032287;28;20662;-77
2021/06/15 09:37:06;;;;;;;4.75;4.43;;;31.90;99.90;;;;;;5039288;28;20206;-77
2021/06/15 09:39:35;;;;;;;4.65;3.95;;;31.80;99.90;;;;;;5037307;28;20198;-78
2021/06/15 09:42:02;;;;;;;6.28;4.85;;;31.80;99.90;;;;;;5029376;28;20207;-77
2021/06/15 09:44:31;;;;;;;5.10;4.70;;;31.80;99.90;;;;;;5028965;28;20357;-79
2021/06/15 09:46:59;;;;;;;5.80;5.03;;;31.90;99.90;;;;;;5029825;28;20670;-75
2021/06/15 09:49:31;;;;;;;4.80;4.10;;;31.80;99.90;;;;;;5032196;28;20678;-81
2021/06/15 09:52:13;;;;;;;5.57;4.60;;;31.60;99.90;;;;;;5029794;28;20234;-80
2021/06/15 09:54:42;;;;;;;6.68;3.78;;;32.30;99.90;;;;;;5024144;28;20209;-81
2021/06/15 09:57:10;;;;;;;4.55;4.25;;;32.60;99.90;;;;;;5031462;28;20211;-78
2021/06/15 09:59:37;;;;;;;4.22;3.53;;;32.80;99.90;;;;;;5032084;28;20213;-76
2021/06/15 10:02:04;;;;;;;4.22;3.83;;;33.20;99.90;;;;;;5031954;28;20215;-78
2021/06/15 10:04:31;;;;;;;5.93;3.50;;;34.90;99.90;;;;;;5031891;28;20731;-77
2021/06/15 10:07:00;;;;;;;3.88;3.40;;;37.00;99.90;;;;;;5031828;28;20214;-78
2021/06/15 10:09:29;;;;;;;4.47;4.07;;;37.90;99.90;;;;;;5031621;28;20206;-74
2021/06/15 10:12:00;;;;;;;5.47;3.58;;;37.60;99.90;;;;;;5029727;28;20230;-76
2021/06/15 10:14:28;;;;;;;4.13;3.80;;;39.10;99.90;;;;;;5017886;28;20207;-75
2021/06/15 10:16:56;;;;;;;3.70;3.50;;;38.60;99.90;;;;;;5029860;28;20215;-73
2021/06/15 10:19:23;;;;;;;4.28;3.42;;;39.10;99.90;;;;;;5029876;28;20207;-77
2021/06/15 10:21:51;;;;;;;4.85;4.45;;;41.00;99.90;;;;;;5031650;28;20260;-77
2021/06/15 10:24:22;;;;;;;4.00;3.70;;;42.40;99.90;;;;;;5031378;28;20210;-78
2021/06/15 10:26:49;;;;;;;4.65;4.28;;;40.80;99.90;;;;;;5036506;28;20206;-79
2021/06/15 10:29:18;;;;;;;4.30;3.90;;;42.00;99.90;;;;;;5031155;28;20214;-80
2021/06/15 10:31:48;;;;;;;3.80;3.40;;;42.30;99.90;;;;;;5031266;28;20245;-83
2021/06/15 10:34:15;;;;;;;4.63;4.20;;;42.00;99.90;;;;;;5030864;28;20638;-85
2021/06/15 10:36:45;;;;;;;5.10;4.65;;;40.60;99.90;;;;;;5031074;28;20203;-84
2021/06/15 10:39:18;;;;;;;4.20;3.85;;;35.80;99.90;;;;;;5030811;28;20688;-83
2021/06/15 10:41:46;;;;;;;5.25;4.28;;;33.00;99.90;;;;;;5031313;28;20215;-81
2021/06/15 10:44:15;;;;;;;6.63;3.50;;;32.50;99.90;;;;;;5031401;28;20337;-84
2021/06/15 10:46:45;;;;;;;6.90;4.00;;;32.10;99.90;;;;;;5031419;28;20580;-82
2021/06/15 10:49:14;;;;;;;4.38;3.25;;;32.30;99.90;;;;;;5031690;28;20199;-84
2021/06/15 10:51:57;;;;;;;3.67;3.38;;;32.20;99.90;;;;;;5031274;28;20736;-80
2021/06/15 10:54:40;;;;;;;5.03;4.55;;;32.20;99.90;;;;;;5028701;28;20211;-87
2021/06/15 10:57:28;;;;;;;4.28;3.78;;;32.00;99.90;;;;;;5031142;28;20199;-87
2021/06/15 11:00:14;;;;;;;8.55;4.32;;;32.00;99.90;;;;;;5027777;28;20264;-81
2021/06/15 11:03:23;;;;;;;4.13;3.83;;;32.10;99.90;;;;;;5023140;28;20209;-83
2021/06/15 11:05:55;;;;;;;4.15;3.85;;;31.80;99.90;;;;;;5027963;28;20297;-84
2021/06/15 11:08:25;;;;;;;4.20;3.72;;;32.10;99.90;;;;;;5030341;28;20264;-81
2021/06/15 11:10:55;;;;;;;3.78;3.40;;;32.20;99.90;;;;;;5030268;28;20312;-86
2021/06/15 11:13:44;;;;;;;4.32;3.53;;;32.10;99.90;;;;;;5031001;28;20547;-82
2021/06/15 11:16:22;;;;;;;4.38;3.72;;;32.30;99.90;;;;;;5018058;28;20264;-82
2021/06/15 11:19:22;;;;;;;3.50;3.20;;;32.00;99.90;;;;;;5030433;28;20655;-79
2021/06/15 13:21:51;;;;;;;3.92;3.13;;;31.70;99.90;;;;;;5690543;23;20238;-74
2021/06/15 13:24:19;;;;;;;3.65;2.58;;;31.40;99.90;;;;;;5029167;28;20207;-73
2021/06/15 13:26:49;;;;;;;4.55;3.28;;;31.50;99.90;;;;;;5045328;28;20210;-77
2021/06/15 13:29:16;;;;;;;3.90;2.85;;;31.80;99.90;;;;;;5020235;28;20215;-77
2021/06/15 13:31:43;;;;;;;3.20;2.90;;;32.00;99.90;;;;;;5032788;28;20762;-72
2021/06/15 13:34:11;;;;;;;4.20;3.20;;;32.40;99.90;;;;;;5032818;28;20229;-77
2021/06/15 13:36:38;;;;;;;6.40;3.25;;;32.80;99.90;;;;;;5032129;28;20199;-72
2021/06/15 13:39:10;;;;;;;3.28;2.97;;;33.10;99.90;;;;;;5032650;28;20207;-74
2021/06/15 13:41:37;;;;;;;4.68;3.30;;;33.20;99.90;;;;;;5032068;28;20203;-74
2021/06/15 13:44:03;;;;;;;8.68;3.03;;;33.40;99.90;;;;;;5033031;28;20203;-71
2021/06/15 13:46:30;;;;;;;3.53;3.00;;;33.30;99.90;;;;;;5032056;28;20214;-71
2021/06/15 13:48:57;;;;;;;6.70;3.38;;;33.30;99.90;;;;;;5032617;28;20207;-71
2021/06/15 13:51:24;;;;;;;6.40;3.53;;;33.30;99.90;;;;;;5031434;28;20292;-69
2021/06/15 13:53:51;;;;;;;7.15;3.30;;;33.30;99.90;;;;;;5032838;28;20333;-70
2021/06/15 13:56:18;;;;;;;5.85;3.58;;;33.20;99.90;;;;;;5032830;28;20202;-72
2021/06/15 13:58:45;;;;;;;3.35;3.05;;;33.00;99.90;;;;;;5032210;28;20209;-76
2021/06/15 14:01:11;;;;;;;6.95;3.95;;;32.60;99.90;;;;;;5043146;28;20206;-73
2021/06/15 14:03:38;;;;;;;3.42;3.13;;;32.70;99.90;;;;;;5032704;28;20210;-75
2021/06/15 14:06:05;;;;;;;6.70;3.30;;;32.90;99.90;;;;;;5037476;28;20202;-73
2021/06/15 14:08:31;;;;;;;3.42;3.22;;;32.70;99.90;;;;;;5031893;28;20578;-71
2021/06/15 14:10:58;;;;;;;4.20;3.80;;;32.70;99.90;;;;;;5032265;28;20203;-73
2021/06/15 14:13:25;;;;;;;4.47;3.08;;;32.70;99.90;;;;;;5031008;28;20211;-70
2021/06/15 14:15:51;;;;;;;3.88;3.00;;;32.50;99.90;;;;;;5031141;28;20214;-71
2021/06/15 14:18:17;;;;;;;5.05;2.55;;;32.50;99.90;;;;;;5031043;28;20277;-68
2021/06/15 14:20:44;;;;;;;3.63;3.05;;;32.50;99.90;;;;;;5035331;28;20681;-69
2021/06/15 14:23:11;;;;;;;3.38;2.90;;;32.40;99.90;;;;;;5031287;28;20211;-70
2021/06/15 14:25:39;;;;;;;2.88;2.67;;;32.20;99.90;;;;;;5025451;28;20211;-72
2021/06/15 14:28:07;;;;;;;4.22;3.17;;;32.20;99.90;;;;;;5031806;28;20206;-68
2021/06/15 14:30:37;;;;;;;6.07;2.72;;;32.30;99.90;;;;;;5031208;28;20268;-72
2021/06/15 14:33:04;;;;;;;6.13;3.17;;;32.30;99.90;;;;;;5026616;28;20741;-68
2021/06/15 14:35:31;;;;;;;3.15;2.95;;;32.20;99.90;;;;;;5029232;28;20258;-70
2021/06/15 14:37:58;;;;;;;3.80;3.15;;;32.10;99.90;;;;;;5031139;28;20207;-70
2021/06/15 14:40:25;;;;;;;2.97;2.70;;;32.10;99.90;;;;;;5029234;28;20260;-70
2021/06/15 14:42:52;;;;;;;3.45;3.15;;;32.20;99.90;;;;;;5030870;28;20210;-70
2021/06/15 14:45:20;;;;;;;4.38;3.13;;;32.20;99.90;;;;;;5031612;28;20199;-70
2021/06/15 14:47:49;;;;;;;3.10;2.90;;;32.30;99.90;;;;;;5031641;28;20210;-70
2021/06/15 14:50:17;;;;;;;3.00;2.72;;;32.50;99.90;;;;;;5031564;28;20219;-70
2021/06/15 14:52:45;;;;;;;3.03;2.83;;;32.40;99.90;;;;;;5030974;28;20238;-70
2021/06/15 14:55:13;;;;;;;8.50;2.85;;;32.40;99.90;;;;;;5031100;28;20206;-70
2021/06/15 14:57:40;;;;;;;4.55;3.03;;;32.40;99.90;;;;;;5031030;28;20288;-69
2021/06/15 15:00:10;;;;;;;3.30;3.00;;;32.30;99.90;;;;;;5031140;28;20210;-70